Orange Grove, Mississippi
Current Conditions -  °F | °C
As of 11:53 AM on Thursday 29 Jan 2015 (Local Time) from KGPT Reporting Station
Clear Clear  
Wind Chill: 68°   Ceiling: Unl
Heat Index: 68°   Visibility: 10mi
Dew Point: 51°   Wind: 7mph
Humidity: 55%   Direction: 180°S
Pressure: 30.27"   Gusts: NA
Location:  30.45°N, 89.08°W
Report Text: KGPT 291753Z 18006KT 10SM CLR 20/11 A3027 RMK AO2 SLP249 T02000106 10200 20044 50003
Loading
Personal Weather Stations






























Interactive Weather Map New forecast layout! Learn more

10-Day Weather Forecast

Advertisements
Track Severe Weather on mobile